Time;durP1;ratioP1;P1;durP2;ratioP2;P2;SDS_P1;SDS_P2;PMS_P1;PMS_P2;Temp;Humidity;BMP_temperature;BMP_pressure;BME280_temperature;BME280_humidity;BME280_pressure;Samples;Min_cycle;Max_cycle;Signal;HPM_P1;HPM_P2
2022/06/12 00:01:54;;;;;;;7.05;2.85;;;12.60;99.90;;;;;;5056148;28;20040;-74
2022/06/12 00:04:20;;;;;;;7.13;2.50;;;12.50;99.90;;;;;;5055956;28;20044;-74
2022/06/12 00:06:48;;;;;;;5.25;2.35;;;12.50;99.90;;;;;;5072729;28;20470;-74
2022/06/12 00:09:14;;;;;;;5.82;2.08;;;12.50;99.90;;;;;;5072612;28;20037;-74
2022/06/12 00:11:41;;;;;;;9.05;2.63;;;12.50;99.90;;;;;;5072708;28;20123;-75
2022/06/12 00:14:07;;;;;;;5.55;2.80;;;12.40;99.90;;;;;;5072502;28;20052;-75
2022/06/12 00:16:34;;;;;;;4.85;2.47;;;12.40;99.90;;;;;;5072630;28;20502;-74
2022/06/12 00:19:00;;;;;;;6.03;2.40;;;12.30;99.90;;;;;;5072407;28;20044;-75
2022/06/12 00:21:27;;;;;;;9.65;2.45;;;12.30;99.90;;;;;;5072658;28;20051;-74
2022/06/12 00:24:02;;;;;;;8.27;2.85;;;12.30;99.90;;;;;;5055652;28;20135;-75
2022/06/12 00:26:44;;;;;;;6.40;2.65;;;12.30;99.90;;;;;;5072491;28;20547;-75
2022/06/12 00:29:20;;;;;;;6.20;2.60;;;12.20;99.90;;;;;;5072330;28;20032;-75
2022/06/12 00:31:49;;;;;;;5.30;2.35;;;12.20;99.90;;;;;;5072496;28;20378;-75
2022/06/12 00:34:17;;;;;;;6.40;2.53;;;12.20;99.90;;;;;;5072100;28;20032;-75
2022/06/12 00:36:43;;;;;;;5.13;2.40;;;12.20;99.90;;;;;;5072511;28;20094;-75
2022/06/12 00:39:09;;;;;;;7.45;2.47;;;;;;;;;;5072012;28;20048;-74
2022/06/12 00:41:36;;;;;;;7.38;2.97;;;;;;;;;;5072113;28;20462;-75
2022/06/12 00:44:03;;;;;;;7.70;2.50;;;12.10;99.90;;;;;;5055117;28;20044;-75
2022/06/12 00:46:46;;;;;;;7.55;2.30;;;12.10;99.90;;;;;;5055604;28;20094;-75
2022/06/12 00:49:29;;;;;;;7.75;2.40;;;12.10;99.90;;;;;;5071851;28;20050;-75
2022/06/12 00:52:26;;;;;;;7.18;2.72;;;12.00;99.90;;;;;;5071971;28;20051;-75
2022/06/12 00:54:55;;;;;;;7.50;2.70;;;12.00;99.90;;;;;;5071475;28;20057;-74
2022/06/12 00:57:22;;;;;;;7.65;2.78;;;12.00;99.90;;;;;;5071844;28;20051;-75
2022/06/12 00:59:53;;;;;;;9.75;2.95;;;11.90;99.90;;;;;;5071199;28;20040;-75
2022/06/12 01:02:23;;;;;;;5.72;2.92;;;11.90;99.90;;;;;;5055003;28;20501;-74
2022/06/12 01:07:37;;;;;;;6.53;2.88;;;11.90;99.90;;;;;;5071654;28;20037;-74
2022/06/12 01:10:08;;;;;;;7.25;2.88;;;11.90;99.90;;;;;;5071609;28;20039;-74
2022/06/12 01:12:44;;;;;;;9.50;3.58;;;11.90;99.90;;;;;;5055026;28;20051;-75
2022/06/12 01:15:15;;;;;;;6.22;2.78;;;11.80;99.90;;;;;;5071454;28;20120;-75
2022/06/12 01:17:41;;;;;;;8.43;2.95;;;11.80;99.90;;;;;;5054838;28;20468;-75
2022/06/12 01:20:12;;;;;;;7.90;3.20;;;11.80;99.90;;;;;;5071392;28;20481;-75
2022/06/12 01:22:47;;;;;;;7.18;3.33;;;11.80;99.90;;;;;;5071487;28;20036;-74
2022/06/12 01:25:50;;;;;;;7.93;3.10;;;11.80;99.90;;;;;;5054841;28;20402;-75
2022/06/12 01:28:37;;;;;;;8.60;3.35;;;11.80;99.90;;;;;;5071177;28;20109;-75
2022/06/12 01:31:15;;;;;;;10.15;3.33;;;11.80;99.90;;;;;;5071035;28;20162;-74
2022/06/12 01:33:43;;;;;;;6.25;2.97;;;11.70;99.90;;;;;;5071132;28;20589;-75
2022/06/12 01:36:25;;;;;;;9.25;3.00;;;11.70;99.90;;;;;;5054374;28;20052;-75
2022/06/12 01:39:01;;;;;;;5.47;3.67;;;11.70;99.90;;;;;;5071146;28;20040;-75
2022/06/12 01:41:53;;;;;;;7.03;2.55;;;11.70;99.90;;;;;;5071100;28;20051;-75
2022/06/12 01:44:50;;;;;;;9.18;3.15;;;11.60;99.90;;;;;;5053741;28;20432;-75
2022/06/12 01:47:39;;;;;;;9.48;3.28;;;11.60;99.90;;;;;;5065249;28;20389;-75
2022/06/12 01:50:07;;;;;;;8.80;3.17;;;11.60;99.90;;;;;;5071054;28;20040;-76
2022/06/12 01:52:43;;;;;;;7.68;2.90;;;11.60;99.90;;;;;;5070982;28;20045;-75
2022/06/12 01:55:24;;;;;;;6.57;2.83;;;11.50;99.90;;;;;;5070745;28;20052;-75
2022/06/12 01:58:02;;;;;;;5.68;2.85;;;11.60;99.90;;;;;;5070840;28;20489;-75
2022/06/12 02:00:29;;;;;;;10.10;3.30;;;11.50;99.90;;;;;;5070584;28;20083;-75
2022/06/12 02:03:07;;;;;;;11.77;3.90;;;11.50;99.90;;;;;;5070461;28;20044;-75
2022/06/12 02:05:38;;;;;;;5.03;2.75;;;11.50;99.90;;;;;;5070382;28;20037;-75
2022/06/12 02:08:11;;;;;;;5.00;3.20;;;11.50;99.90;;;;;;5070550;28;20044;-75
2022/06/12 02:10:56;;;;;;;8.07;3.15;;;11.50;99.90;;;;;;5052776;28;20397;-75
2022/06/12 02:13:34;;;;;;;8.35;3.58;;;11.50;99.90;;;;;;5070693;28;20500;-75
2022/06/12 02:16:30;;;;;;;7.90;3.15;;;11.40;99.90;;;;;;5070454;28;20040;-75
2022/06/12 02:19:04;;;;;;;8.70;3.50;;;11.50;99.90;;;;;;5085004;28;20052;-75
2022/06/12 02:21:37;;;;;;;6.53;3.42;;;11.40;99.90;;;;;;5070161;28;20059;-75
2022/06/12 02:24:09;;;;;;;8.75;3.58;;;11.40;99.90;;;;;;5070333;28;20037;-75
2022/06/12 02:26:58;;;;;;;6.43;3.10;;;11.40;99.90;;;;;;5070301;28;20428;-75
2022/06/12 02:29:32;;;;;;;6.03;3.30;;;11.40;99.90;;;;;;5070403;28;20390;-75
2022/06/12 02:32:00;;;;;;;7.13;3.00;;;11.40;99.90;;;;;;5069839;28;20075;-75
2022/06/12 02:34:31;;;;;;;9.93;3.75;;;11.40;99.90;;;;;;5070267;28;20429;-75
2022/06/12 02:37:06;;;;;;;7.10;3.30;;;11.30;99.90;;;;;;5070137;28;20051;-74
2022/06/12 02:39:41;;;;;;;7.10;3.92;;;11.30;99.90;;;;;;5069914;28;20274;-74
2022/06/12 02:42:09;;;;;;;6.20;3.42;;;11.30;99.90;;;;;;5069760;28;20127;-74
2022/06/12 02:44:46;;;;;;;6.00;2.95;;;11.30;99.90;;;;;;5070155;28;20477;-74
2022/06/12 02:47:18;;;;;;;7.93;3.75;;;11.30;99.90;;;;;;5069835;28;20524;-74
2022/06/12 02:49:47;;;;;;;5.90;3.05;;;11.30;99.90;;;;;;5069639;28;20036;-75
2022/06/12 02:52:40;;;;;;;6.82;3.33;;;11.30;99.90;;;;;;5069687;28;20097;-74
2022/06/12 02:55:27;;;;;;;5.90;3.35;;;11.30;99.90;;;;;;5069539;28;20049;-74
2022/06/12 02:58:06;;;;;;;7.07;3.17;;;11.30;99.90;;;;;;5069587;28;20036;-74
2022/06/12 03:00:41;;;;;;;4.65;2.83;;;11.30;99.90;;;;;;5069456;28;20356;-74
2022/06/12 03:03:28;;;;;;;6.88;3.20;;;11.20;99.90;;;;;;5069360;28;20047;-74
2022/06/12 03:05:57;;;;;;;7.50;3.13;;;11.20;99.90;;;;;;5069451;28;20386;-74
2022/06/12 03:08:26;;;;;;;9.95;3.95;;;11.30;99.90;;;;;;5052574;28;20040;-74
2022/06/12 03:11:07;;;;;;;6.80;3.42;;;11.20;99.90;;;;;;5069168;28;20063;-74
2022/06/12 03:13:34;;;;;;;6.03;2.97;;;11.30;99.90;;;;;;5069447;28;20050;-74
2022/06/12 03:16:16;;;;;;;6.40;3.10;;;11.20;99.90;;;;;;5069102;28;20504;-74
2022/06/12 03:18:48;;;;;;;7.18;3.08;;;11.20;99.90;;;;;;5052005;28;20076;-74
2022/06/12 03:21:19;;;;;;;6.97;3.50;;;11.20;99.90;;;;;;5068933;28;20051;-74
2022/06/12 03:24:22;;;;;;;9.57;3.78;;;11.20;99.90;;;;;;5069219;28;20080;-75
2022/06/12 03:27:06;;;;;;;;;;;11.20;99.90;;;;;;5069542;28;20047;-74
2022/06/12 03:29:52;;;;;;;5.85;2.65;;;11.20;99.90;;;;;;5052606;28;20007;-75
2022/06/12 03:32:25;;;;;;;23.60;3.78;;;11.20;99.90;;;;;;5069221;28;20106;-75
2022/06/12 03:34:57;;;;;;;4.40;2.50;;;11.20;99.90;;;;;;5052594;28;20121;-75
2022/06/12 03:37:43;;;;;;;9.52;3.40;;;11.20;99.90;;;;;;5068906;28;20047;-75
2022/06/12 03:40:30;;;;;;;8.15;3.25;;;11.20;99.90;;;;;;5069107;28;20044;-75
2022/06/12 03:43:14;;;;;;;6.25;2.78;;;11.20;99.90;;;;;;5052012;28;20048;-75
2022/06/12 03:45:50;;;;;;;4.95;2.63;;;11.20;99.90;;;;;;5068922;28;20068;-76
2022/06/12 03:48:42;;;;;;;7.80;2.70;;;11.30;99.90;;;;;;5052141;28;20231;-75
2022/06/12 03:51:34;;;;;;;4.22;2.33;;;11.30;99.90;;;;;;5070014;28;20391;-75
2022/06/12 03:54:12;;;;;;;;;;;11.30;99.90;;;;;;5069106;28;20092;-75
2022/06/12 04:00:04;;;;;;;5.10;2.50;;;11.40;99.90;;;;;;5068700;28;20048;-75
2022/06/12 04:02:32;;;;;;;8.85;2.67;;;11.40;99.90;;;;;;5079720;28;20136;-75
2022/06/12 04:04:59;;;;;;;5.55;2.70;;;11.50;99.90;;;;;;5068709;28;20036;-75
2022/06/12 04:07:27;;;;;;;7.78;2.88;;;11.50;99.90;;;;;;5068835;28;20047;-75
2022/06/12 04:09:55;;;;;;;7.00;2.72;;;11.60;99.90;;;;;;5068660;28;20040;-75
2022/06/12 04:12:25;;;;;;;6.22;2.42;;;11.60;99.90;;;;;;5068559;28;20037;-75
2022/06/12 04:15:08;;;;;;;6.15;2.78;;;11.60;99.90;;;;;;5068539;28;20033;-75
2022/06/12 04:17:34;;;;;;;5.28;2.72;;;11.70;99.90;;;;;;5068502;28;20058;-75
2022/06/12 04:20:03;;;;;;;6.60;2.70;;;11.80;99.90;;;;;;5068559;28;20052;-75
2022/06/12 04:22:55;;;;;;;7.50;2.80;;;11.80;99.90;;;;;;5051808;28;20506;-75
2022/06/12 04:25:33;;;;;;;8.25;2.80;;;11.90;99.90;;;;;;5068652;28;20242;-75
2022/06/12 04:27:59;;;;;;;6.07;2.50;;;11.90;99.90;;;;;;5068564;28;20117;-75
2022/06/12 04:30:29;;;;;;;5.95;2.55;;;12.00;99.90;;;;;;5068868;28;20083;-75
2022/06/12 04:33:17;;;;;;;8.00;3.40;;;12.10;99.90;;;;;;5068679;28;20394;-75
2022/06/12 04:35:55;;;;;;;8.43;2.90;;;12.20;99.90;;;;;;5072185;28;20051;-75
2022/06/12 04:38:22;;;;;;;4.78;2.70;;;12.30;99.90;;;;;;5072380;28;20052;-75
2022/06/12 04:40:48;;;;;;;9.00;3.03;;;12.40;99.90;;;;;;5072104;28;20048;-75
2022/06/12 04:43:14;;;;;;;7.47;3.10;;;12.40;99.90;;;;;;5072041;28;20427;-75
2022/06/12 04:45:40;;;;;;;6.15;3.15;;;12.50;99.90;;;;;;5071982;28;20040;-75
2022/06/12 04:48:11;;;;;;;6.68;2.92;;;12.60;99.90;;;;;;5071644;28;20494;-75
2022/06/12 04:50:37;;;;;;;8.02;3.00;;;12.70;99.90;;;;;;5072004;28;20123;-75
2022/06/12 04:53:03;;;;;;;8.02;2.78;;;12.80;99.90;;;;;;5071740;28;20190;-75
2022/06/12 04:55:32;;;;;;;8.88;2.65;;;12.80;99.90;;;;;;5072240;28;20358;-75
2022/06/12 04:57:58;;;;;;;10.40;2.70;;;13.00;99.90;;;;;;5071999;28;20087;-75
2022/06/12 05:00:23;;;;;;;8.95;3.00;;;13.10;99.90;;;;;;5071763;28;20416;-75
2022/06/12 05:02:49;;;;;;;11.30;3.10;;;13.10;99.90;;;;;;5071674;28;20083;-75
2022/06/12 05:05:14;;;;;;;5.78;2.33;;;13.20;99.90;;;;;;5071603;28;20470;-75
2022/06/12 05:07:40;;;;;;;6.95;2.65;;;13.40;99.90;;;;;;5071478;28;20041;-75
2022/06/12 05:10:06;;;;;;;7.43;2.60;;;13.50;99.90;;;;;;5071640;28;20087;-75
2022/06/12 05:12:32;;;;;;;8.15;3.40;;;13.60;99.90;;;;;;5071856;28;20540;-75
2022/06/12 05:14:58;;;;;;;10.00;3.08;;;13.70;99.90;;;;;;5071653;28;20044;-75
2022/06/12 05:17:24;;;;;;;6.65;2.40;;;13.80;99.90;;;;;;5071724;28;20102;-75
2022/06/12 05:19:50;;;;;;;8.18;2.80;;;13.90;99.90;;;;;;5071428;28;20079;-75
2022/06/12 05:22:16;;;;;;;8.60;2.92;;;14.00;99.90;;;;;;5071595;28;20055;-75
2022/06/12 05:24:44;;;;;;;8.38;2.45;;;14.10;99.90;;;;;;5055052;28;20040;-75
2022/06/12 05:27:16;;;;;;;6.75;2.40;;;14.20;99.90;;;;;;5071466;28;20044;-75
2022/06/12 05:29:42;;;;;;;9.15;3.25;;;14.30;99.90;;;;;;5071261;28;20058;-75
2022/06/12 05:32:09;;;;;;;8.25;2.60;;;14.50;99.90;;;;;;5071273;28;20102;-75
2022/06/12 05:34:35;;;;;;;11.40;3.03;;;14.60;99.90;;;;;;5054632;28;20052;-75
2022/06/12 05:37:02;;;;;;;8.93;2.92;;;14.70;99.90;;;;;;5071520;28;20370;-75
2022/06/12 05:39:28;;;;;;;10.95;2.40;;;14.80;99.90;;;;;;5071278;28;20075;-75
2022/06/12 05:41:54;;;;;;;8.55;2.42;;;14.90;99.90;;;;;;5054521;28;20048;-75
2022/06/12 05:44:20;;;;;;;7.68;2.72;;;15.10;99.90;;;;;;5070698;28;20048;-75
2022/06/12 05:46:46;;;;;;;7.32;3.03;;;15.40;99.90;;;;;;5070942;28;20041;-75
2022/06/12 05:49:13;;;;;;;8.38;3.08;;;16.50;99.90;;;;;;5071131;28;20045;-76
2022/06/12 05:51:39;;;;;;;12.07;3.53;;;18.20;99.90;;;;;;5071028;28;20089;-76
2022/06/12 05:54:05;;;;;;;9.70;2.80;;;19.40;99.90;;;;;;5070684;28;20061;-76
2022/06/12 05:56:31;;;;;;;9.07;2.95;;;20.50;99.90;;;;;;5070757;28;20056;-76
2022/06/12 05:58:59;;;;;;;7.75;2.92;;;21.50;99.90;;;;;;5070879;28;20058;-76
2022/06/12 06:01:25;;;;;;;6.22;2.40;;;22.50;99.90;;;;;;5053959;28;20052;-76
2022/06/12 06:03:52;;;;;;;10.38;2.75;;;23.30;99.40;;;;;;5070614;28;20175;-76
2022/06/12 06:06:22;;;;;;;13.15;2.95;;;24.20;98.80;;;;;;5070682;28;20321;-76
2022/06/12 06:08:48;;;;;;;8.65;2.92;;;;;;;;;;5070430;28;20119;-76
2022/06/12 06:11:14;;;;;;;9.07;2.80;;;25.60;94.60;;;;;;5070381;28;20049;-76
2022/06/12 06:13:39;;;;;;;12.45;3.10;;;26.20;92.00;;;;;;5070550;28;20134;-76
2022/06/12 06:16:07;;;;;;;10.95;2.95;;;26.50;89.80;;;;;;5070250;28;20051;-76
2022/06/12 06:18:33;;;;;;;8.57;2.60;;;26.90;90.20;;;;;;5053560;28;20051;-76
2022/06/12 06:20:59;;;;;;;10.43;2.97;;;27.40;87.90;;;;;;5070291;28;20037;-76
2022/06/12 06:23:25;;;;;;;8.93;2.70;;;27.70;86.90;;;;;;5070007;28;20040;-76
2022/06/12 06:25:51;;;;;;;9.90;2.70;;;27.90;86.20;;;;;;5053291;28;20052;-76
2022/06/12 06:28:17;;;;;;;8.45;2.83;;;28.30;83.80;;;;;;5069978;28;20041;-76
2022/06/12 06:30:43;;;;;;;8.25;2.80;;;28.70;84.80;;;;;;5070371;28;20050;-76
2022/06/12 06:33:09;;;;;;;9.63;2.95;;;28.90;80.60;;;;;;5070266;28;20410;-76
2022/06/12 06:35:36;;;;;;;11.93;3.28;;;29.20;78.90;;;;;;5069811;28;20098;-76
2022/06/12 06:38:02;;;;;;;8.35;2.47;;;29.50;79.20;;;;;;5070052;28;20547;-76
2022/06/12 06:40:30;;;;;;;11.73;3.15;;;29.40;76.30;;;;;;5053280;28;20036;-76
2022/06/12 06:42:55;;;;;;;9.68;3.38;;;29.50;74.80;;;;;;5069818;28;20394;-76
2022/06/12 06:48:07;;;;;;;13.15;3.65;;;29.80;73.30;;;;;;5069812;28;20081;-74
2022/06/12 06:50:34;;;;;;;12.43;3.17;;;30.00;72.50;;;;;;5052831;28;20040;-75
2022/06/12 06:53:00;;;;;;;7.40;2.95;;;30.20;70.80;;;;;;5069595;28;20048;-76
2022/06/12 06:55:27;;;;;;;10.02;3.10;;;30.30;71.40;;;;;;5069433;28;20474;-75
2022/06/12 06:57:52;;;;;;;12.45;3.60;;;30.20;70.00;;;;;;5068897;28;20263;-75
2022/06/12 07:00:23;;;;;;;11.93;3.35;;;30.70;67.70;;;;;;5069333;28;20052;-74
2022/06/12 07:02:49;;;;;;;8.77;3.33;;;30.50;66.60;;;;;;5069421;28;20044;-74
2022/06/12 07:05:15;;;;;;;10.20;3.47;;;30.70;68.10;;;;;;5069260;28;20053;-75
2022/06/12 07:07:41;;;;;;;13.90;3.50;;;30.40;65.80;;;;;;5069217;28;20055;-75
2022/06/12 07:10:11;;;;;;;10.23;3.70;;;30.70;67.60;;;;;;5069447;28;20048;-75
2022/06/12 07:12:36;;;;;;;9.65;2.85;;;30.70;66.60;;;;;;5069457;28;20051;-75
2022/06/12 07:15:03;;;;;;;12.27;3.03;;;31.00;67.90;;;;;;5069441;28;20589;-75
2022/06/12 07:17:28;;;;;;;13.38;3.58;;;30.90;65.30;;;;;;5052501;28;20481;-75
2022/06/12 07:19:54;;;;;;;10.55;3.25;;;30.60;65.60;;;;;;5068953;28;20040;-75
2022/06/12 07:22:20;;;;;;;8.80;3.22;;;30.90;66.70;;;;;;5069050;28;20040;-75
2022/06/12 07:24:46;;;;;;;10.73;3.60;;;30.90;67.00;;;;;;5069111;28;20123;-75
2022/06/12 07:27:12;;;;;;;9.93;3.00;;;30.90;65.10;;;;;;5052317;28;20050;-75
2022/06/12 07:29:37;;;;;;;11.00;3.42;;;31.30;63.80;;;;;;5069053;28;20046;-75
2022/06/12 07:32:03;;;;;;;9.20;3.33;;;31.20;65.10;;;;;;5069080;28;20044;-75
2022/06/12 07:34:29;;;;;;;9.50;3.38;;;31.10;64.70;;;;;;5068898;28;20444;-75
2022/06/12 07:36:55;;;;;;;9.48;3.47;;;31.10;62.00;;;;;;5068851;28;20127;-75
2022/06/12 07:39:30;;;;;;;10.48;3.03;;;31.00;61.40;;;;;;5068919;28;20048;-75
2022/06/12 07:41:57;;;;;;;13.45;3.75;;;31.00;64.10;;;;;;5052386;28;20037;-75
2022/06/12 07:44:25;;;;;;;8.77;2.88;;;31.10;63.90;;;;;;5052124;28;20494;-75
2022/06/12 07:46:53;;;;;;;8.02;2.92;;;31.10;63.80;;;;;;5068852;28;20123;-75
2022/06/12 07:49:20;;;;;;;11.27;3.42;;;31.30;62.90;;;;;;5068920;28;20051;-75
2022/06/12 07:51:46;;;;;;;8.95;3.33;;;31.60;63.60;;;;;;5052392;28;20032;-75
2022/06/12 07:54:12;;;;;;;9.18;3.00;;;31.40;60.70;;;;;;5052200;28;20053;-75
2022/06/12 07:56:38;;;;;;;9.80;3.22;;;31.50;62.10;;;;;;5068799;28;20056;-75
2022/06/12 07:59:06;;;;;;;10.82;3.17;;;31.40;62.70;;;;;;5069180;28;20135;-75
2022/06/12 08:01:31;;;;;;;9.52;3.05;;;31.10;61.50;;;;;;5068793;28;20048;-75
2022/06/12 08:03:57;;;;;;;9.25;3.15;;;30.90;61.60;;;;;;5068736;28;20094;-75
2022/06/12 08:06:24;;;;;;;8.07;2.85;;;30.70;60.70;;;;;;5068649;28;20047;-75
2022/06/12 08:08:50;;;;;;;9.73;2.78;;;30.30;61.20;;;;;;5069695;28;20083;-75
2022/06/12 08:11:16;;;;;;;11.18;3.50;;;29.80;62.40;;;;;;5072751;28;20438;-75
2022/06/12 08:13:42;;;;;;;9.82;3.03;;;29.10;63.60;;;;;;5072868;28;20528;-75
2022/06/12 08:16:08;;;;;;;10.80;3.13;;;28.10;64.30;;;;;;5055720;28;20079;-75
2022/06/12 08:18:34;;;;;;;11.90;3.00;;;27.50;65.80;;;;;;5055827;28;20119;-75
2022/06/12 08:21:08;;;;;;;8.45;2.90;;;26.40;68.50;;;;;;5072426;28;20147;-75
2022/06/12 08:23:43;;;;;;;11.15;3.28;;;26.20;68.10;;;;;;5072513;28;20087;-75
2022/06/12 08:26:14;;;;;;;9.43;3.08;;;25.50;70.30;;;;;;5072483;28;20399;-75
2022/06/12 08:28:44;;;;;;;8.52;3.10;;;25.30;71.60;;;;;;5056147;28;20105;-75
2022/06/12 08:31:13;;;;;;;6.88;2.42;;;25.10;73.40;;;;;;5072455;28;20506;-75
2022/06/12 08:33:41;;;;;;;9.60;2.90;;;25.00;73.50;;;;;;5055823;28;20393;-75
2022/06/12 08:36:09;;;;;;;7.85;2.85;;;24.80;73.70;;;;;;5072111;28;20048;-75
2022/06/12 08:38:34;;;;;;;9.07;2.50;;;24.40;73.90;;;;;;5072295;28;20172;-75
2022/06/12 08:41:07;;;;;;;10.38;3.00;;;24.20;74.80;;;;;;5072101;28;20440;-75
2022/06/12 08:43:42;;;;;;;5.80;2.33;;;24.00;75.60;;;;;;5071831;28;20094;-75
2022/06/12 08:46:15;;;;;;;11.27;3.08;;;24.00;75.60;;;;;;5072270;28;20124;-76
2022/06/12 08:48:54;;;;;;;10.57;2.97;;;24.00;78.60;;;;;;5072182;28;20109;-75
2022/06/12 08:51:38;;;;;;;8.57;3.08;;;24.00;79.30;;;;;;5071884;28;20047;-75
2022/06/12 08:54:10;;;;;;;9.25;2.80;;;24.10;76.80;;;;;;5054949;28;20064;-75
2022/06/12 08:56:43;;;;;;;8.18;2.92;;;24.00;80.50;;;;;;5071693;28;20063;-75
2022/06/12 08:59:27;;;;;;;10.30;3.40;;;24.20;78.70;;;;;;5071789;28;20354;-75
2022/06/12 09:01:53;;;;;;;11.85;3.00;;;24.20;78.70;;;;;;5071718;28;20561;-75
2022/06/12 09:04:23;;;;;;;9.80;2.65;;;24.00;81.60;;;;;;5071503;28;20047;-75
2022/06/12 09:06:54;;;;;;;9.15;2.80;;;24.10;81.00;;;;;;5072742;28;20045;-75
2022/06/12 09:09:51;;;;;;;9.32;3.15;;;24.20;81.50;;;;;;5055137;28;20037;-75
2022/06/12 09:12:24;;;;;;;10.35;3.30;;;24.20;80.00;;;;;;5071868;28;20425;-75
2022/06/12 09:14:52;;;;;;;9.27;3.20;;;24.10;84.40;;;;;;5071583;28;20090;-75
2022/06/12 09:17:33;;;;;;;10.10;3.42;;;24.10;88.30;;;;;;5071475;28;20382;-75
2022/06/12 09:20:02;;;;;;;10.82;3.03;;;24.20;88.60;;;;;;5070902;28;20127;-75
2022/06/12 09:22:46;;;;;;;11.65;3.38;;;24.50;85.40;;;;;;5071285;28;20048;-75
2022/06/12 09:25:32;;;;;;;11.30;3.50;;;24.40;87.60;;;;;;5071463;28;20044;-75
2022/06/12 09:28:03;;;;;;;11.13;3.15;;;24.30;85.00;;;;;;5054493;28;20036;-75
2022/06/12 09:30:38;;;;;;;10.65;2.85;;;23.90;84.80;;;;;;5071538;28;20090;-75
2022/06/12 09:33:30;;;;;;;6.63;2.65;;;23.70;85.00;;;;;;5070970;28;20090;-75
2022/06/12 09:36:10;;;;;;;;;;;23.70;85.30;;;;;;5071625;28;20040;-75
2022/06/12 09:39:07;;;;;;;9.15;2.63;;;23.60;83.60;;;;;;5070976;28;19920;-75
2022/06/12 09:41:56;;;;;;;9.30;2.92;;;23.60;85.70;;;;;;5071025;28;20513;-75
2022/06/12 09:44:21;;;;;;;7.70;2.70;;;23.50;85.90;;;;;;5081975;28;20056;-75
2022/06/12 09:47:10;;;;;;;9.23;2.85;;;23.60;86.80;;;;;;5071095;28;20084;-75
2022/06/12 09:50:08;;;;;;;5.85;2.15;;;23.80;84.70;;;;;;5070963;28;20028;-75
2022/06/12 09:52:56;;;;;;;9.68;2.63;;;23.90;81.00;;;;;;5070616;28;20076;-75
2022/06/12 09:55:30;;;;;;;7.20;2.55;;;23.70;81.40;;;;;;5071031;28;20060;-75
2022/06/12 09:58:06;;;;;;;8.38;2.28;;;23.70;81.80;;;;;;5054180;28;20584;-75
2022/06/12 10:00:40;;;;;;;8.13;2.05;;;23.70;79.50;;;;;;5070740;28;20040;-75
2022/06/12 10:03:08;;;;;;;6.80;2.08;;;23.70;78.30;;;;;;5070612;28;20055;-75
2022/06/12 10:05:56;;;;;;;6.63;2.47;;;23.40;78.50;;;;;;5054171;28;20040;-75
2022/06/12 10:08:40;;;;;;;6.10;2.20;;;23.20;79.50;;;;;;5059691;22;20068;-77
2022/06/12 10:11:11;;;;;;;9.82;2.30;;;;;;;;;;5054342;28;20045;-77
2022/06/12 10:14:05;;;;;;;8.68;2.08;;;22.90;82.30;;;;;;5054247;28;20051;-77
2022/06/12 10:16:45;;;;;;;6.60;1.92;;;22.80;83.30;;;;;;5027962;28;20549;-77
2022/06/12 10:19:23;;;;;;;5.95;2.03;;;22.70;82.10;;;;;;5053875;28;20067;-77
2022/06/12 10:21:53;;;;;;;5.65;2.30;;;22.90;81.30;;;;;;5054242;28;20390;-77
2022/06/12 10:24:20;;;;;;;4.68;2.20;;;23.10;82.00;;;;;;5053531;28;20072;-76
2022/06/12 10:27:14;;;;;;;4.10;1.70;;;23.20;80.40;;;;;;5054142;28;20442;-77
2022/06/12 10:29:55;;;;;;;7.57;2.10;;;23.40;80.00;;;;;;5051158;28;20045;-77
2022/06/12 10:32:24;;;;;;;3.10;1.40;;;23.40;79.20;;;;;;5052752;28;20032;-75
2022/06/12 10:34:51;;;;;;;4.55;1.40;;;23.50;78.00;;;;;;5053168;28;20052;-76
2022/06/12 10:37:28;;;;;;;6.15;1.67;;;23.50;78.70;;;;;;5053275;28;20428;-75
2022/06/12 10:40:06;;;;;;;3.92;1.38;;;23.70;79.70;;;;;;5053146;28;20051;-75
2022/06/12 10:42:55;;;;;;;2.88;1.17;;;23.60;68.90;;;;;;5052953;28;20079;-76
2022/06/12 10:45:27;;;;;;;4.53;1.60;;;23.60;72.20;;;;;;5052979;28;20040;-76
2022/06/12 10:47:55;;;;;;;4.60;1.45;;;23.50;72.60;;;;;;5053159;28;20079;-76
2022/06/12 10:50:32;;;;;;;6.88;1.63;;;23.60;77.80;;;;;;5052837;28;20033;-76
2022/06/12 10:53:13;;;;;;;3.83;1.55;;;23.50;76.80;;;;;;5036588;28;20101;-76
2022/06/12 10:56:03;;;;;;;5.45;1.60;;;23.40;74.70;;;;;;5035974;28;20098;-76
2022/06/12 10:59:04;;;;;;;5.70;1.60;;;23.00;70.50;;;;;;5052812;28;20045;-76
2022/06/12 11:01:44;;;;;;;7.60;1.77;;;23.10;74.60;;;;;;5052980;28;20119;-75
2022/06/12 11:04:31;;;;;;;4.93;1.60;;;22.90;75.70;;;;;;5052576;28;20041;-75
2022/06/12 11:07:21;;;;;;;5.07;1.58;;;22.90;77.60;;;;;;5036315;28;20076;-76
2022/06/12 11:10:02;;;;;;;3.85;1.45;;;22.90;76.70;;;;;;5052373;28;20106;-76
2022/06/12 11:12:38;;;;;;;3.15;1.42;;;22.70;76.50;;;;;;5052750;28;20089;-76
2022/06/12 11:15:45;;;;;;;3.83;1.95;;;22.70;77.60;;;;;;5052669;28;20478;-76
2022/06/12 11:18:22;;;;;;;5.78;1.60;;;22.50;75.10;;;;;;5052699;28;20044;-77
2022/06/12 11:20:50;;;;;;;4.47;1.83;;;22.30;77.60;;;;;;5052348;28;20044;-77
2022/06/12 11:24:03;;;;;;;5.55;2.03;;;22.30;79.60;;;;;;5052522;28;20296;-77
2022/06/12 11:27:25;;;;;;;6.78;2.00;;;22.30;77.80;;;;;;4975846;28;20044;-77
2022/06/12 11:30:10;;;;;;;4.97;1.55;;;22.40;81.30;;;;;;4952981;28;20047;-74
2022/06/12 11:32:48;;;;;;;6.57;1.95;;;22.50;78.60;;;;;;4972193;28;20057;-74
2022/06/12 11:35:36;;;;;;;5.43;1.80;;;22.50;78.70;;;;;;5026509;28;20482;-74
2022/06/12 11:38:21;;;;;;;4.57;1.92;;;22.90;80.80;;;;;;5035755;28;20050;-74
2022/06/12 11:41:07;;;;;;;4.78;1.70;;;23.10;74.20;;;;;;5052365;28;20037;-75
2022/06/12 11:43:37;;;;;;;3.80;1.92;;;23.10;76.70;;;;;;5052201;28;20163;-74
2022/06/12 11:46:15;;;;;;;4.32;2.00;;;23.00;77.40;;;;;;5052033;28;20044;-74
2022/06/12 11:49:16;;;;;;;5.80;2.25;;;22.80;76.10;;;;;;5052273;28;20062;-74
2022/06/12 11:52:02;;;;;;;4.57;1.63;;;22.80;77.20;;;;;;5049013;28;20056;-75
2022/06/12 11:54:50;;;;;;;4.45;1.67;;;23.00;80.20;;;;;;5052061;28;20564;-75
2022/06/12 11:57:19;;;;;;;4.80;1.85;;;23.20;79.80;;;;;;5052392;28;20036;-74
2022/06/12 12:00:01;;;;;;;4.88;1.73;;;23.40;79.20;;;;;;5051762;28;20037;-75
2022/06/12 12:03:09;;;;;;;5.35;1.92;;;23.50;74.70;;;;;;5035387;28;20505;-75
2022/06/12 12:05:45;;;;;;;4.85;2.05;;;23.80;77.90;;;;;;5051917;28;20048;-75
2022/06/12 12:08:40;;;;;;;7.15;2.10;;;23.60;76.90;;;;;;5035604;28;20048;-74
2022/06/12 12:11:39;;;;;;;5.78;2.05;;;23.50;75.30;;;;;;5052024;28;20105;-75
2022/06/12 12:14:07;;;;;;;5.25;2.17;;;23.20;80.10;;;;;;5051857;28;20051;-74
2022/06/12 12:16:49;;;;;;;6.70;1.75;;;23.20;80.60;;;;;;5052066;28;20513;-75
2022/06/12 12:19:29;;;;;;;5.10;1.83;;;23.30;74.40;;;;;;5052038;28;20095;-74
2022/06/12 12:22:04;;;;;;;4.65;1.83;;;23.50;75.50;;;;;;5035223;28;20076;-74
2022/06/12 12:24:43;;;;;;;4.57;1.80;;;23.40;71.90;;;;;;5035219;28;20041;-74
2022/06/12 12:27:34;;;;;;;4.05;1.98;;;23.60;73.10;;;;;;5051864;28;20032;-75
2022/06/12 12:30:06;;;;;;;6.82;1.88;;;23.60;77.40;;;;;;5051937;28;20513;-74
2022/06/12 12:32:34;;;;;;;5.57;1.77;;;23.40;74.10;;;;;;5051580;28;20090;-74
2022/06/12 12:35:00;;;;;;;5.50;1.77;;;23.20;74.00;;;;;;5051777;28;20072;-74
2022/06/12 12:43:17;;;;;;;3.05;1.75;;;23.50;74.10;;;;;;5051640;28;20044;-74
2022/06/12 12:45:42;;;;;;;6.43;1.60;;;23.40;72.00;;;;;;5034987;28;20855;-73
2022/06/12 12:48:10;;;;;;;7.38;2.33;;;23.00;72.00;;;;;;5035097;28;20044;-73
2022/06/12 12:50:55;;;;;;;5.32;1.50;;;23.00;75.30;;;;;;5051589;28;20121;-74
2022/06/12 12:53:26;;;;;;;5.40;1.65;;;22.80;76.20;;;;;;5051858;28;20112;-74
2022/06/12 12:56:09;;;;;;;10.00;2.30;;;22.50;74.50;;;;;;5037306;28;20084;-73
2022/06/12 12:58:41;;;;;;;5.07;1.80;;;22.50;74.80;;;;;;5055115;28;20084;-73
2022/06/12 13:01:21;;;;;;;5.47;2.00;;;22.60;77.40;;;;;;5055205;28;20048;-75
2022/06/12 13:03:49;;;;;;;5.80;1.50;;;22.80;76.80;;;;;;5055144;28;20044;-75
2022/06/12 13:06:22;;;;;;;5.88;2.00;;;23.10;78.00;;;;;;5054814;28;20037;-75
2022/06/12 13:09:13;;;;;;;5.72;1.85;;;23.20;76.40;;;;;;5054831;28;20055;-76
2022/06/12 13:12:15;;;;;;;5.33;1.90;;;23.30;75.70;;;;;;5038417;28;20043;-75
2022/06/12 13:14:55;;;;;;;4.25;1.75;;;22.80;72.50;;;;;;5054818;28;20505;-75
2022/06/12 13:17:34;;;;;;;5.10;1.75;;;22.60;77.80;;;;;;5054805;28;20047;-75
2022/06/12 13:20:03;;;;;;;4.25;1.80;;;22.50;75.70;;;;;;5038382;28;20440;-75
2022/06/12 13:22:48;;;;;;;4.00;1.70;;;22.60;77.60;;;;;;5037946;28;20052;-75
2022/06/12 13:25:30;;;;;;;5.38;1.98;;;22.50;78.30;;;;;;5072898;28;20049;-76
2022/06/12 13:27:58;;;;;;;4.03;1.40;;;22.70;78.70;;;;;;5054473;28;20044;-75
2022/06/12 13:30:25;;;;;;;3.50;1.65;;;22.80;76.90;;;;;;5054591;28;20040;-75
2022/06/12 13:32:51;;;;;;;4.40;1.80;;;23.00;78.80;;;;;;5037659;28;20493;-75
2022/06/12 13:35:29;;;;;;;5.95;1.65;;;23.10;78.10;;;;;;5054523;28;20044;-75
2022/06/12 13:38:03;;;;;;;7.65;1.65;;;23.00;77.10;;;;;;5037987;28;20150;-75
2022/06/12 13:40:39;;;;;;;5.85;1.67;;;22.90;71.10;;;;;;5054603;28;20371;-75